BAW8 RJTT-EGLL
Flight info
| Callsign | BAW8 |
|---|---|
| Flight time | N/A |
| Altitude | 33000 |
| Route | ROVER3C INUBO Y808 PUTER/N0496F340 A590 POWAL/N0499F330 DCT OPAKE DCT NATES R338 MARCC DCT JUJXI/N0493F350 DCT AGMIF DCT 79N120W 80N100W 80N080W/N0494F370 DCT BUDUM/M085F370 DCT 80N060W 80N040W 74N020W 65N010W DCT MATIK/N0497F390 DCT BESGA DCT ELBUS UL612 LAKEY DCT NUGRA NUGRA1H |
| Aircraft | A35K/H-SDE2E3GHIJ3J4J5LM1ORWXY/LB1D1 |
Departure
| Time | 2026-05-07 19:12 |
|---|---|
| Airport | Tokyo Haneda International Airport (RJTT) |
Arrival
| Time | N/A |
|---|---|
| Airport | London Heathrow Airport (EGLL) |
| Time | Latitude | Longitude | Altitude | Speed | Heading |
|---|---|---|---|---|---|
| 2026-05-07 18:58 | 35.55041 | 139.77027 | 29 ft | 0 kts | 148° |
| 2026-05-07 19:05 | 35.55044 | 139.77025 | 29 ft | 3 kts | 148° |
| 2026-05-07 19:06 | 35.55065 | 139.77007 | 27 ft | 2 kts | 145° |
| 2026-05-07 19:06 | 35.55078 | 139.76959 | 28 ft | 4 kts | 59° |
| 2026-05-07 19:06 | 35.55070 | 139.76943 | 29 ft | 0 kts | 64° |
| 2026-05-07 19:07 | 35.55071 | 139.76943 | 29 ft | 0 kts | 64° |
| 2026-05-07 19:08 | 35.55092 | 139.76993 | 27 ft | 19 kts | 61° |
| 2026-05-07 19:08 | 35.55167 | 139.77093 | 29 ft | 14 kts | 10° |
| 2026-05-07 19:09 | 35.55254 | 139.77051 | 29 ft | 15 kts | 330° |
| 2026-05-07 19:09 | 35.55405 | 139.76944 | 29 ft | 31 kts | 330° |
| 2026-05-07 19:09 | 35.55595 | 139.76985 | 29 ft | 30 kts | 36° |
| 2026-05-07 19:09 | 35.55768 | 139.77140 | 30 ft | 32 kts | 36° |
| 2026-05-07 19:10 | 35.55942 | 139.77321 | 29 ft | 33 kts | 57° |
| 2026-05-07 19:10 | 35.56062 | 139.77569 | 29 ft | 35 kts | 60° |
| 2026-05-07 19:10 | 35.56187 | 139.77833 | 29 ft | 36 kts | 59° |
| 2026-05-07 19:10 | 35.56314 | 139.78101 | 29 ft | 37 kts | 59° |
| 2026-05-07 19:11 | 35.56447 | 139.78382 | 29 ft | 39 kts | 60° |
| 2026-05-07 19:11 | 35.56535 | 139.78563 | 29 ft | 17 kts | 59° |
| 2026-05-07 19:11 | 35.56533 | 139.78698 | 29 ft | 17 kts | 136° |
| 2026-05-07 19:11 | 35.56428 | 139.78774 | 30 ft | 19 kts | 150° |
| 2026-05-07 19:12 | 35.56089 | 139.79011 | 30 ft | 107 kts | 150° |
| 2026-05-07 19:12 | 35.55163 | 139.79666 | 38 ft | 196 kts | 144° |
| 2026-05-07 19:12 | 35.53940 | 139.80588 | 1004 ft | 214 kts | 150° |
| 2026-05-07 19:12 | 35.52558 | 139.81635 | 1971 ft | 253 kts | 150° |
| 2026-05-07 19:13 | 35.51028 | 139.82790 | 3367 ft | 265 kts | 150° |
| 2026-05-07 19:13 | 35.49600 | 139.84247 | 5087 ft | 269 kts | 138° |
| 2026-05-07 19:13 | 35.48615 | 139.86164 | 6156 ft | 269 kts | 115° |
| 2026-05-07 19:13 | 35.48401 | 139.88506 | 6547 ft | 291 kts | 82° |
| 2026-05-07 19:14 | 35.49173 | 139.90854 | 6964 ft | 303 kts | 58° |
| 2026-05-07 19:14 | 35.50283 | 139.93086 | 7568 ft | 309 kts | 58° |
| 2026-05-07 19:14 | 35.51398 | 139.95369 | 8198 ft | 314 kts | 59° |
| 2026-05-07 19:14 | 35.52502 | 139.97708 | 8856 ft | 319 kts | 60° |
| 2026-05-07 19:15 | 35.53607 | 140.00102 | 9481 ft | 324 kts | 60° |
| 2026-05-07 19:15 | 35.54705 | 140.02509 | 10102 ft | 328 kts | 60° |
| 2026-05-07 19:15 | 35.56042 | 140.04831 | 10435 ft | 341 kts | 41° |
| 2026-05-07 19:15 | 35.58085 | 140.06324 | 10698 ft | 347 kts | 13° |
| 2026-05-07 19:16 | 35.60474 | 140.06583 | 10981 ft | 348 kts | 347° |
| 2026-05-07 19:16 | 35.62734 | 140.05568 | 11231 ft | 348 kts | 322° |
| 2026-05-07 19:16 | 35.64442 | 140.03482 | 11474 ft | 348 kts | 298° |
| 2026-05-07 19:16 | 35.65539 | 140.00817 | 11841 ft | 353 kts | 294° |
| 2026-05-07 19:17 | 35.67174 | 139.98485 | 12279 ft | 370 kts | 318° |
| 2026-05-07 19:17 | 35.69511 | 139.97041 | 12750 ft | 386 kts | 340° |
| 2026-05-07 19:17 | 35.72168 | 139.96577 | 13255 ft | 394 kts | 352° |
| 2026-05-07 19:17 | 35.74856 | 139.95995 | 13725 ft | 391 kts | 339° |
| 2026-05-07 19:18 | 35.77452 | 139.94942 | 14152 ft | 392 kts | 335° |
| 2026-05-07 19:18 | 35.80026 | 139.93786 | 14597 ft | 395 kts | 335° |
| 2026-05-07 19:18 | 35.82610 | 139.92597 | 15046 ft | 398 kts | 334° |
| 2026-05-07 19:18 | 35.85210 | 139.91388 | 15498 ft | 401 kts | 334° |
| 2026-05-07 19:19 | 35.87829 | 139.90164 | 15956 ft | 403 kts | 334° |
| 2026-05-07 19:19 | 35.90461 | 139.88928 | 16402 ft | 406 kts | 334° |
| 2026-05-07 19:19 | 35.93117 | 139.87689 | 16852 ft | 410 kts | 334° |
| 2026-05-07 19:19 | 35.95769 | 139.86469 | 17282 ft | 415 kts | 336° |
| 2026-05-07 19:20 | 35.98640 | 139.85764 | 17694 ft | 429 kts | 353° |
| 2026-05-07 19:20 | 36.01640 | 139.86184 | 18132 ft | 442 kts | 12° |
| 2026-05-07 19:20 | 36.04566 | 139.87456 | 18510 ft | 448 kts | 18° |
| 2026-05-07 19:20 | 36.07474 | 139.88884 | 18890 ft | 451 kts | 18° |
| 2026-05-07 19:21 | 36.10404 | 139.90308 | 19288 ft | 453 kts | 18° |
| 2026-05-07 19:21 | 36.13363 | 139.91724 | 19635 ft | 456 kts | 17° |
| 2026-05-07 19:21 | 36.16275 | 139.93339 | 19996 ft | 463 kts | 27° |
| 2026-05-07 19:21 | 36.18820 | 139.95824 | 20378 ft | 470 kts | 45° |
| 2026-05-07 19:22 | 36.20689 | 139.99084 | 20750 ft | 472 kts | 63° |
| 2026-05-07 19:22 | 36.21772 | 140.02923 | 21148 ft | 471 kts | 81° |
| 2026-05-07 19:22 | 36.22304 | 140.06937 | 21492 ft | 473 kts | 84° |
| 2026-05-07 19:22 | 36.22810 | 140.10973 | 21851 ft | 476 kts | 83° |
| 2026-05-07 19:23 | 36.23374 | 140.15036 | 22181 ft | 479 kts | 82° |
| 2026-05-07 19:23 | 36.23962 | 140.19106 | 22526 ft | 481 kts | 83° |
| 2026-05-07 19:23 | 36.24181 | 140.23232 | 22887 ft | 478 kts | 96° |
| 2026-05-07 19:23 | 36.23619 | 140.27251 | 23232 ft | 472 kts | 111° |
| 2026-05-07 19:24 | 36.22299 | 140.30882 | 23513 ft | 466 kts | 127° |
| 2026-05-07 19:24 | 36.20299 | 140.34000 | 23769 ft | 458 kts | 141° |
| 2026-05-07 19:24 | 36.17883 | 140.36545 | 24066 ft | 455 kts | 147° |
| 2026-05-07 19:24 | 36.15372 | 140.38948 | 24356 ft | 457 kts | 148° |
| 2026-05-07 19:25 | 36.12852 | 140.41352 | 24642 ft | 458 kts | 147° |
| 2026-05-07 19:25 | 36.10322 | 140.43776 | 24897 ft | 461 kts | 147° |
| 2026-05-07 19:25 | 36.07778 | 140.46221 | 25152 ft | 464 kts | 147° |
| 2026-05-07 19:25 | 36.05248 | 140.48656 | 25436 ft | 466 kts | 147° |
| 2026-05-07 19:26 | 36.02688 | 140.51122 | 25744 ft | 467 kts | 147° |
| 2026-05-07 19:26 | 36.00109 | 140.53605 | 26049 ft | 469 kts | 147° |
| 2026-05-07 19:26 | 35.97533 | 140.56084 | 26340 ft | 471 kts | 147° |
| 2026-05-07 19:26 | 35.94944 | 140.58574 | 26650 ft | 472 kts | 147° |
| 2026-05-07 19:27 | 35.92346 | 140.61070 | 26955 ft | 474 kts | 147° |
| 2026-05-07 19:27 | 35.89732 | 140.63580 | 27251 ft | 476 kts | 147° |
| 2026-05-07 19:27 | 35.87108 | 140.66098 | 27572 ft | 478 kts | 147° |
| 2026-05-07 19:27 | 35.84485 | 140.68612 | 27928 ft | 479 kts | 147° |
| 2026-05-07 19:28 | 35.81881 | 140.71106 | 28258 ft | 481 kts | 147° |
| 2026-05-07 19:28 | 35.79237 | 140.73636 | 28581 ft | 483 kts | 147° |
| 2026-05-07 19:28 | 35.76613 | 140.76235 | 28908 ft | 487 kts | 143° |
| 2026-05-07 19:28 | 35.74206 | 140.79232 | 29239 ft | 495 kts | 134° |
| 2026-05-07 19:29 | 35.72198 | 140.82709 | 29561 ft | 504 kts | 124° |
| 2026-05-07 19:29 | 35.70640 | 140.86626 | 29859 ft | 511 kts | 116° |
| 2026-05-07 19:29 | 35.69336 | 140.90701 | 30183 ft | 514 kts | 114° |
| 2026-05-07 19:29 | 35.68114 | 140.94850 | 30447 ft | 517 kts | 113° |
| 2026-05-07 19:30 | 35.66919 | 140.99042 | 30708 ft | 519 kts | 113° |
| 2026-05-07 19:30 | 35.65740 | 141.03188 | 30963 ft | 522 kts | 113° |
| 2026-05-07 19:30 | 35.64527 | 141.07412 | 31257 ft | 524 kts | 113° |
| 2026-05-07 19:30 | 35.63297 | 141.11640 | 31531 ft | 526 kts | 114° |
| 2026-05-07 19:31 | 35.62055 | 141.15868 | 31796 ft | 527 kts | 114° |
| 2026-05-07 19:31 | 35.60798 | 141.20113 | 32230 ft | 525 kts | 114° |
| 2026-05-07 19:31 | 35.59549 | 141.24317 | 32654 ft | 524 kts | 114° |
| 2026-05-07 19:31 | 35.58294 | 141.28527 | 32849 ft | 524 kts | 114° |
| 2026-05-07 19:32 | 35.55780 | 141.36940 | 32868 ft | 524 kts | 114° |
| 2026-05-07 19:32 | 35.53272 | 141.45314 | 32618 ft | 526 kts | 114° |
| 2026-05-07 19:33 | 35.52010 | 141.49521 | 32758 ft | 523 kts | 114° |
| 2026-05-07 19:33 | 35.50751 | 141.53713 | 32870 ft | 523 kts | 114° |
| 2026-05-07 19:33 | 35.48228 | 141.62094 | 32878 ft | 523 kts | 114° |
| 2026-05-07 19:34 | 35.45723 | 141.70412 | 32874 ft | 524 kts | 113° |
| 2026-05-07 19:34 | 35.44298 | 141.79211 | 32885 ft | 531 kts | 96° |
| 2026-05-07 19:35 | 35.44074 | 141.88310 | 32881 ft | 533 kts | 94° |
| 2026-05-07 19:35 | 35.44046 | 141.97406 | 32881 ft | 533 kts | 93° |
| 2026-05-07 19:36 | 35.44015 | 142.06457 | 32877 ft | 533 kts | 93° |
| 2026-05-07 19:36 | 35.43949 | 142.15537 | 32889 ft | 532 kts | 94° |
| 2026-05-07 19:37 | 35.44001 | 142.24627 | 32886 ft | 534 kts | 87° |